createdAt,value
2019-02-20T00:00:20.074Z,14.20
2019-02-20T00:02:48.494Z,10.90
2019-02-20T00:05:17.224Z,12.20
2019-02-20T00:07:45.846Z,16.02
2019-02-20T00:10:14.266Z,14.28
2019-02-20T00:12:42.721Z,13.50
2019-02-20T00:15:11.566Z,11.65
2019-02-20T00:17:40.341Z,13.72
2019-02-20T00:20:08.849Z,11.78
2019-02-20T00:22:40.258Z,16.02
2019-02-20T00:25:07.460Z,10.60
2019-02-20T00:27:35.927Z,13.93
2019-02-20T00:30:07.193Z,11.18
2019-02-20T00:32:35.660Z,11.30
2019-02-20T00:35:05.555Z,9.85
2019-02-20T00:37:33.961Z,15.20
2019-02-20T00:40:02.440Z,18.90
2019-02-20T00:42:30.922Z,13.65
2019-02-20T00:45:01.019Z,12.80
2019-02-20T00:47:49.046Z,12.47
2019-02-20T00:50:18.578Z,12.98
2019-02-20T00:52:54.825Z,12.75
2019-02-20T00:55:23.230Z,11.68
2019-02-20T00:57:51.644Z,10.32
2019-02-20T01:00:20.102Z,14.28
2019-02-20T01:02:48.539Z,13.98
2019-02-20T01:05:17.013Z,11.22
2019-02-20T01:07:45.530Z,11.85
2019-02-20T01:10:13.971Z,14.80
2019-02-20T01:12:42.370Z,14.68
2019-02-20T01:15:11.458Z,13.35
2019-02-20T01:17:39.864Z,9.48
2019-02-20T01:20:09.818Z,13.00
2019-02-20T01:22:38.465Z,9.45
2019-02-20T01:25:07.196Z,12.58
2019-02-20T01:27:35.795Z,11.73
2019-02-20T01:30:06.633Z,16.57
2019-02-20T01:32:35.186Z,12.63
2019-02-20T01:35:03.697Z,12.58
2019-02-20T01:37:32.130Z,9.23
2019-02-20T01:40:00.543Z,9.55
2019-02-20T01:42:28.942Z,11.57
2019-02-20T01:44:57.382Z,10.30
2019-02-20T01:47:25.793Z,10.98
2019-02-20T01:49:54.194Z,10.85
2019-02-20T01:52:22.618Z,9.03
2019-02-20T01:54:51.037Z,14.35
2019-02-20T01:57:19.457Z,14.40
2019-02-20T01:59:47.897Z,17.80
2019-02-20T02:02:16.333Z,16.12
2019-02-20T02:04:45.097Z,11.03
2019-02-20T02:07:13.486Z,12.63
2019-02-20T02:09:41.889Z,11.45
2019-02-20T02:12:10.315Z,10.78
2019-02-20T02:14:38.748Z,10.50
2019-02-20T02:17:07.162Z,10.28
2019-02-20T02:19:35.592Z,15.45
2019-02-20T02:22:03.998Z,8.45
2019-02-20T02:24:32.403Z,9.63
2019-02-20T02:27:00.882Z,10.80
2019-02-20T02:29:29.307Z,8.45
2019-02-20T02:31:57.812Z,9.90
2019-02-20T02:34:26.225Z,12.35
2019-02-20T02:36:54.952Z,13.32
2019-02-20T02:39:23.369Z,11.60
2019-02-20T02:41:51.799Z,10.30
2019-02-20T02:44:20.194Z,11.80
2019-02-20T02:46:48.950Z,11.97
2019-02-20T02:49:17.358Z,8.90
2019-02-20T02:51:45.794Z,11.12
2019-02-20T02:54:14.416Z,11.57
2019-02-20T02:56:42.842Z,9.85
2019-02-20T02:59:11.490Z,10.58
2019-02-20T03:01:39.895Z,8.20
2019-02-20T03:04:08.302Z,8.55
2019-02-20T03:06:36.726Z,10.05
2019-02-20T03:09:05.816Z,11.55
2019-02-20T03:11:34.230Z,11.60
2019-02-20T03:14:02.709Z,12.93
2019-02-20T03:16:31.178Z,9.13
2019-02-20T03:18:59.596Z,13.25
2019-02-20T03:21:28.029Z,12.05
2019-02-20T03:23:57.083Z,10.95
2019-02-20T03:26:26.006Z,10.48
2019-02-20T03:28:54.444Z,11.53
2019-02-20T03:31:22.888Z,12.10
2019-02-20T03:33:51.435Z,9.63
2019-02-20T03:36:19.861Z,10.40
2019-02-20T03:38:48.304Z,8.58
2019-02-20T03:41:16.733Z,12.05
2019-02-20T03:43:45.164Z,10.72
2019-02-20T03:46:13.594Z,10.85
2019-02-20T03:48:42.023Z,10.00
2019-02-20T03:51:10.449Z,12.60
2019-02-20T03:53:38.875Z,11.18
2019-02-20T03:56:07.358Z,11.20
2019-02-20T03:58:35.863Z,12.93
2019-02-20T04:01:04.270Z,11.08
2019-02-20T04:03:32.674Z,11.43
2019-02-20T04:06:01.090Z,9.10
2019-02-20T04:08:29.506Z,12.50
2019-02-20T04:10:57.959Z,10.32
2019-02-20T04:13:26.412Z,9.55
2019-02-20T04:15:54.862Z,8.33
2019-02-20T04:18:23.283Z,7.97
2019-02-20T04:20:51.692Z,14.33
2019-02-20T04:23:20.165Z,12.43
2019-02-20T04:25:48.577Z,12.58
2019-02-20T04:28:17.003Z,10.60
2019-02-20T04:30:45.791Z,9.43
2019-02-20T04:33:14.251Z,11.10
2019-02-20T04:35:42.659Z,13.83
2019-02-20T04:38:11.342Z,12.63
2019-02-20T04:40:39.739Z,11.45
2019-02-20T04:43:08.186Z,14.03
2019-02-20T04:45:36.887Z,12.07
2019-02-20T04:48:05.593Z,10.45
2019-02-20T04:50:33.999Z,8.58
2019-02-20T04:53:02.417Z,9.33
2019-02-20T04:55:30.848Z,10.32
2019-02-20T04:58:11.115Z,12.07
2019-02-20T05:00:39.541Z,11.30
2019-02-20T05:03:07.959Z,10.93
2019-02-20T05:05:36.367Z,8.65
2019-02-20T05:08:04.827Z,10.30
2019-02-20T05:10:33.242Z,11.53
2019-02-20T05:13:01.690Z,7.92
2019-02-20T05:15:30.199Z,10.05
2019-02-20T05:17:58.705Z,12.70
2019-02-20T05:20:27.529Z,11.03
2019-02-20T05:22:56.228Z,9.48
2019-02-20T05:25:25.001Z,9.08
2019-02-20T05:27:53.446Z,9.55
2019-02-20T05:30:21.859Z,10.23
2019-02-20T05:32:50.279Z,9.83
2019-02-20T05:35:18.678Z,16.77
2019-02-20T05:37:47.104Z,8.28
2019-02-20T05:40:15.580Z,9.40
2019-02-20T05:42:44.342Z,9.20
2019-02-20T05:45:12.832Z,8.83
2019-02-20T05:47:41.511Z,11.70
2019-02-20T05:50:12.333Z,17.77
2019-02-20T05:52:40.771Z,11.20
2019-02-20T05:55:09.178Z,7.28
2019-02-20T05:57:37.581Z,9.33
2019-02-20T06:00:09.438Z,11.60
2019-02-20T06:02:38.126Z,9.13
2019-02-20T06:05:07.429Z,9.40
2019-02-20T06:07:35.934Z,7.65
2019-02-20T06:10:05.742Z,12.45
2019-02-20T06:12:34.171Z,10.82
2019-02-20T06:15:02.571Z,12.58
2019-02-20T06:17:31.007Z,10.43
2019-02-20T06:19:59.411Z,7.53
2019-02-20T06:22:27.885Z,9.68
2019-02-20T06:24:56.280Z,9.05
2019-02-20T06:27:24.992Z,9.48
2019-02-20T06:29:53.638Z,12.10
2019-02-20T06:32:24.039Z,10.35
2019-02-20T06:34:52.282Z,10.43
2019-02-20T06:37:21.095Z,8.70
2019-02-20T06:39:49.490Z,11.08
2019-02-20T06:42:17.900Z,13.32
2019-02-20T06:44:46.654Z,9.93
2019-02-20T06:47:15.070Z,11.10
2019-02-20T06:49:43.602Z,16.85
2019-02-20T06:52:12.021Z,12.45
2019-02-20T06:54:40.742Z,11.93
2019-02-20T06:57:09.212Z,11.20
2019-02-20T06:59:37.647Z,12.30
2019-02-20T07:02:06.247Z,14.63
2019-02-20T07:04:34.982Z,13.70
2019-02-20T07:07:09.019Z,10.80
2019-02-20T07:10:03.582Z,12.33
2019-02-20T07:12:40.698Z,17.60
2019-02-20T07:15:28.622Z,13.90
2019-02-20T07:18:03.550Z,9.05
2019-02-20T07:20:57.850Z,10.50
2019-02-20T07:23:57.683Z,13.45
2019-02-20T07:27:02.538Z,9.43
2019-02-20T07:29:48.751Z,9.08
2019-02-20T07:32:17.822Z,10.15
2019-02-20T07:34:46.272Z,10.55
2019-02-20T07:37:14.669Z,10.70
2019-02-20T07:39:43.459Z,9.68
2019-02-20T07:42:11.871Z,10.15
2019-02-20T07:44:40.292Z,10.55
2019-02-20T07:47:08.974Z,9.93
2019-02-20T07:49:37.366Z,9.78
2019-02-20T07:52:05.766Z,9.60
2019-02-20T07:54:34.295Z,11.12
2019-02-20T07:57:02.670Z,12.75
2019-02-20T07:59:31.469Z,12.50
2019-02-20T08:01:59.864Z,11.33
2019-02-20T08:04:28.305Z,13.98
2019-02-20T08:06:56.698Z,15.23
2019-02-20T08:09:25.413Z,12.35
2019-02-20T08:11:53.941Z,13.50
2019-02-20T08:14:22.372Z,11.70
2019-02-20T08:16:52.697Z,13.80
2019-02-20T08:19:21.928Z,16.27
2019-02-20T08:21:50.643Z,11.93
2019-02-20T08:24:19.036Z,18.30
2019-02-20T08:26:47.446Z,10.63
2019-02-20T08:29:15.873Z,13.50
2019-02-20T08:31:44.291Z,12.73
2019-02-20T08:34:12.706Z,12.25
2019-02-20T08:36:41.167Z,14.55
2019-02-20T08:39:09.843Z,12.23
2019-02-20T08:41:38.288Z,11.88
2019-02-20T08:44:06.746Z,14.65
2019-02-20T08:46:35.187Z,17.00
2019-02-20T08:49:03.630Z,12.15
2019-02-20T08:51:32.074Z,15.72
2019-02-20T08:54:00.487Z,12.20
2019-02-20T08:56:28.886Z,16.90
2019-02-20T08:58:57.602Z,19.47
2019-02-20T09:01:26.007Z,17.13
2019-02-20T09:03:54.431Z,24.33
2019-02-20T09:06:22.844Z,28.20
2019-02-20T09:08:51.487Z,27.13
2019-02-20T09:11:19.887Z,35.87
2019-02-20T09:13:48.318Z,24.60
2019-02-20T09:16:16.750Z,28.50
2019-02-20T09:18:45.166Z,26.53
2019-02-20T09:21:13.581Z,30.20
2019-02-20T09:23:42.280Z,31.37
2019-02-20T09:26:11.014Z,33.90
2019-02-20T09:28:39.488Z,25.90
2019-02-20T09:31:07.894Z,27.43
2019-02-20T09:33:36.418Z,19.53
2019-02-20T09:36:04.876Z,20.90
2019-02-20T09:38:33.386Z,19.40
2019-02-20T09:41:02.114Z,18.00
2019-02-20T09:43:30.510Z,19.67
2019-02-20T09:45:59.018Z,17.73
2019-02-20T09:48:27.472Z,15.93
2019-02-20T09:50:55.913Z,18.17
2019-02-20T09:53:24.431Z,16.43
2019-02-20T09:55:52.869Z,17.43
2019-02-20T09:58:21.399Z,17.60
2019-02-20T10:00:49.822Z,19.50
2019-02-20T10:03:19.088Z,21.13
2019-02-20T10:05:47.542Z,23.47
2019-02-20T10:08:15.975Z,20.43
2019-02-20T10:10:44.651Z,23.17
2019-02-20T10:13:13.388Z,25.37
2019-02-20T10:15:42.136Z,27.20
2019-02-20T10:18:12.147Z,19.80
2019-02-20T10:20:40.758Z,21.00
2019-02-20T10:23:09.231Z,24.60
2019-02-20T10:25:37.674Z,21.93
2019-02-20T10:28:06.483Z,28.53
2019-02-20T10:30:34.930Z,25.73
2019-02-20T10:33:03.357Z,22.00
2019-02-20T10:35:31.783Z,26.30
2019-02-20T10:38:00.540Z,20.37
2019-02-20T10:40:28.968Z,21.03
2019-02-20T10:42:57.521Z,27.50
2019-02-20T10:45:26.007Z,18.00
2019-02-20T10:47:54.525Z,24.80
2019-02-20T10:50:25.924Z,25.40
2019-02-20T10:52:54.388Z,18.47
2019-02-20T10:55:22.841Z,30.43
2019-02-20T10:57:51.302Z,27.03
2019-02-20T11:00:24.214Z,20.90
2019-02-20T11:02:51.613Z,21.60
2019-02-20T11:05:20.103Z,20.77
2019-02-20T11:07:48.961Z,22.50
2019-02-20T11:10:17.570Z,22.63
2019-02-20T11:15:33.844Z,18.67
2019-02-20T11:18:02.351Z,20.67
2019-02-20T11:20:31.139Z,18.40
2019-02-20T11:22:59.701Z,29.00
2019-02-20T11:25:28.179Z,25.50
2019-02-20T11:27:56.873Z,24.33
2019-02-20T11:30:26.674Z,22.60
2019-02-20T11:32:55.159Z,32.33
2019-02-20T11:35:23.636Z,21.57
2019-02-20T11:37:52.662Z,26.60
2019-02-20T11:40:21.119Z,25.63
2019-02-20T11:42:52.795Z,22.93
2019-02-20T11:45:21.603Z,27.60
2019-02-20T11:47:50.024Z,19.57
2019-02-20T11:50:23.619Z,19.50
2019-02-20T11:52:52.215Z,27.30
2019-02-20T11:55:20.731Z,22.60
2019-02-20T11:57:49.195Z,23.97
2019-02-20T12:00:18.786Z,25.10
2019-02-20T12:02:47.238Z,21.30
2019-02-20T12:05:15.685Z,25.23
2019-02-20T12:07:44.171Z,22.83
2019-02-20T12:10:15.345Z,23.23
2019-02-20T12:12:43.994Z,20.23
2019-02-20T12:15:12.991Z,22.40
2019-02-20T12:17:41.802Z,23.03
2019-02-20T12:20:10.689Z,21.50
2019-02-20T12:22:39.183Z,21.77
2019-02-20T12:25:09.182Z,23.10
2019-02-20T12:27:37.675Z,20.33
2019-02-20T12:30:13.311Z,28.17
2019-02-20T12:32:41.727Z,25.57
2019-02-20T12:35:10.387Z,24.00
2019-02-20T12:37:39.082Z,26.67
2019-02-20T12:40:09.124Z,23.03
2019-02-20T12:42:37.553Z,23.13
2019-02-20T12:45:07.799Z,23.60
2019-02-20T12:47:36.276Z,23.40
2019-02-20T12:50:07.811Z,22.50
2019-02-20T12:52:36.285Z,23.93
2019-02-20T12:55:06.051Z,24.97
2019-02-20T12:57:34.642Z,19.53
2019-02-20T13:00:03.988Z,19.03
2019-02-20T13:02:32.437Z,23.20
2019-02-20T13:05:01.268Z,24.70
2019-02-20T13:07:30.118Z,20.90
2019-02-20T13:09:58.819Z,22.40
2019-02-20T13:12:27.266Z,25.27
2019-02-20T13:14:55.962Z,24.50
2019-02-20T13:17:24.445Z,20.13
2019-02-20T13:19:53.126Z,22.77
2019-02-20T13:22:21.573Z,20.60
2019-02-20T13:24:50.039Z,24.40
2019-02-20T13:27:22.738Z,21.37
2019-02-20T13:29:48.617Z,18.47
2019-02-20T13:32:17.057Z,18.77
2019-02-20T13:34:45.530Z,17.00
2019-02-20T13:37:14.007Z,20.80
2019-02-20T13:39:42.712Z,19.23
2019-02-20T13:42:11.272Z,18.47
2019-02-20T13:44:40.337Z,14.90
2019-02-20T13:47:09.078Z,16.17
2019-02-20T13:49:37.713Z,17.73
2019-02-20T13:52:06.227Z,16.20
2019-02-20T13:54:35.648Z,15.03
2019-02-20T13:57:04.530Z,18.27
2019-02-20T13:59:33.809Z,17.03
2019-02-20T14:02:02.298Z,10.83
2019-02-20T14:04:30.928Z,12.97
2019-02-20T14:06:59.868Z,11.27
2019-02-20T14:09:28.813Z,9.10
2019-02-20T14:11:57.590Z,9.23
2019-02-20T14:14:26.050Z,12.50
2019-02-20T14:16:54.948Z,8.27
2019-02-20T14:19:23.467Z,9.00
2019-02-20T14:21:51.991Z,10.03
2019-02-20T14:24:20.527Z,10.60
2019-02-20T14:26:48.982Z,10.47
2019-02-20T14:29:17.639Z,9.40
2019-02-20T14:31:46.117Z,18.00
2019-02-20T14:34:14.964Z,13.50
2019-02-20T14:36:43.617Z,15.80
2019-02-20T14:39:12.081Z,12.73
2019-02-20T14:41:40.498Z,11.13
2019-02-20T14:44:09.050Z,11.77
2019-02-20T14:46:37.520Z,12.80
2019-02-20T14:49:06.062Z,12.30
2019-02-20T14:51:34.846Z,13.10
2019-02-20T14:54:03.296Z,17.10
2019-02-20T14:56:31.822Z,13.17
2019-02-20T14:59:00.598Z,21.77
2019-02-20T15:01:29.314Z,13.63
2019-02-20T15:03:57.887Z,14.37
2019-02-20T15:06:27.046Z,15.53
2019-02-20T15:08:55.482Z,12.90
2019-02-20T15:11:23.925Z,13.80
2019-02-20T15:13:54.980Z,12.13
2019-02-20T15:16:22.731Z,16.03
2019-02-20T15:18:51.226Z,17.17
2019-02-20T15:21:19.800Z,13.53
2019-02-20T15:23:48.646Z,12.47
2019-02-20T15:26:17.127Z,14.13
2019-02-20T15:28:45.542Z,13.93
2019-02-20T15:31:14.049Z,10.87
2019-02-20T15:33:42.563Z,11.57
2019-02-20T15:36:11.149Z,8.40
2019-02-20T15:38:39.958Z,8.47
2019-02-20T15:41:08.565Z,10.50
2019-02-20T15:43:37.056Z,7.60
2019-02-20T15:46:05.883Z,7.90
2019-02-20T15:48:34.554Z,9.27
2019-02-20T15:51:03.038Z,6.43
2019-02-20T15:53:31.503Z,26.15
2019-02-20T15:56:01.346Z,5.58
2019-02-20T15:58:30.127Z,7.85
2019-02-20T16:00:58.627Z,6.67
2019-02-20T16:03:27.152Z,7.50
2019-02-20T16:05:56.044Z,9.03
2019-02-20T16:08:24.532Z,6.10
2019-02-20T16:10:53.115Z,8.25
2019-02-20T16:13:21.838Z,8.33
2019-02-20T16:15:50.308Z,4.72
2019-02-20T16:18:20.020Z,6.17
2019-02-20T16:20:48.547Z,7.75
2019-02-20T16:23:17.992Z,6.42
2019-02-20T16:25:49.686Z,9.38
2019-02-20T16:28:18.614Z,6.62
2019-02-20T16:30:47.103Z,9.38
2019-02-20T16:33:15.646Z,5.58
2019-02-20T16:35:44.095Z,5.65
2019-02-20T16:38:12.593Z,5.20
2019-02-20T16:40:41.066Z,6.58
2019-02-20T16:43:09.525Z,8.63
2019-02-20T16:45:38.670Z,8.15
2019-02-20T16:48:07.259Z,7.70
2019-02-20T16:50:36.015Z,6.40
2019-02-20T16:53:04.595Z,9.78
2019-02-20T16:55:33.058Z,10.30
2019-02-20T16:58:01.549Z,12.70
2019-02-20T17:00:30.051Z,14.13
2019-02-20T17:02:58.598Z,10.25
2019-02-20T17:05:27.330Z,10.80
2019-02-20T17:07:55.875Z,10.90
2019-02-20T17:10:24.365Z,10.20
2019-02-20T17:12:52.817Z,10.98
2019-02-20T17:15:21.403Z,8.48
2019-02-20T17:17:50.242Z,7.08
2019-02-20T17:20:20.538Z,9.98
2019-02-20T17:22:49.110Z,8.65
2019-02-20T17:25:18.645Z,6.83
2019-02-20T17:27:47.087Z,7.17
2019-02-20T17:30:17.191Z,5.70
2019-02-20T17:32:46.197Z,12.68
2019-02-20T17:35:17.061Z,9.83
2019-02-20T17:37:45.986Z,6.08
2019-02-20T17:40:15.514Z,9.18
2019-02-20T17:42:43.948Z,7.53
2019-02-20T17:45:19.127Z,6.08
2019-02-20T17:47:47.914Z,6.85
2019-02-20T17:50:19.461Z,9.15
2019-02-20T17:52:47.891Z,7.42
2019-02-20T17:55:16.297Z,7.45
2019-02-20T17:57:44.712Z,12.60
2019-02-20T18:00:18.845Z,7.65
2019-02-20T18:02:47.285Z,4.62
2019-02-20T18:05:15.814Z,5.50
2019-02-20T18:07:49.663Z,7.47
2019-02-20T18:10:14.846Z,7.78
2019-02-20T18:12:43.247Z,7.45
2019-02-20T18:15:32.908Z,11.90
2019-02-20T18:18:01.680Z,14.78
2019-02-20T18:20:30.204Z,7.17
2019-02-20T18:22:59.986Z,8.75
2019-02-20T18:25:30.690Z,6.58
2019-02-20T18:27:59.675Z,11.73
2019-02-20T18:30:31.943Z,10.38
2019-02-20T18:33:00.539Z,15.43
2019-02-20T18:35:30.052Z,9.40
2019-02-20T18:37:58.517Z,9.88
2019-02-20T18:40:28.879Z,13.65
2019-02-20T18:42:58.968Z,12.33
2019-02-20T18:45:27.615Z,11.73
2019-02-20T18:47:56.101Z,10.98
2019-02-20T18:50:24.971Z,12.30
2019-02-20T18:52:53.501Z,16.57
2019-02-20T18:55:21.911Z,14.78
2019-02-20T18:57:50.379Z,13.72
2019-02-20T19:00:20.530Z,15.18
2019-02-20T19:02:49.171Z,14.63
2019-02-20T19:05:18.945Z,13.13
2019-02-20T19:07:47.687Z,22.37
2019-02-20T19:10:38.769Z,11.50
2019-02-20T19:13:10.265Z,12.63
2019-02-20T19:15:56.615Z,12.35
2019-02-20T19:18:43.083Z,9.95
2019-02-20T19:21:26.211Z,11.75
2019-02-20T19:24:15.553Z,11.70
2019-02-20T19:26:52.902Z,14.58
2019-02-20T19:29:48.429Z,11.73
2019-02-20T19:32:28.311Z,11.45
2019-02-20T19:35:25.578Z,12.13
2019-02-20T19:38:06.613Z,10.80
2019-02-20T19:40:52.257Z,13.38
2019-02-20T19:43:41.621Z,15.28
2019-02-20T19:46:45.138Z,11.33
2019-02-20T19:49:16.874Z,10.15
2019-02-20T19:52:06.349Z,13.48
2019-02-20T19:54:42.110Z,13.38
2019-02-20T19:57:30.374Z,15.28
2019-02-20T20:00:20.026Z,12.47
2019-02-20T20:03:15.645Z,13.80
2019-02-20T20:05:57.626Z,13.78
2019-02-20T20:08:55.241Z,9.58
2019-02-20T20:11:44.527Z,11.95
2019-02-20T20:14:13.543Z,10.98
2019-02-20T20:16:47.475Z,11.03
2019-02-20T20:19:21.703Z,11.93
2019-02-20T20:22:09.473Z,12.68
2019-02-20T20:24:44.067Z,10.18
2019-02-20T20:27:38.238Z,13.10
2019-02-20T20:30:32.548Z,11.97
2019-02-20T20:33:20.773Z,12.60
2019-02-20T20:36:08.834Z,11.88
2019-02-20T20:39:15.214Z,15.05
2019-02-20T20:41:52.666Z,15.13
2019-02-20T20:44:32.937Z,11.70
2019-02-20T20:47:10.492Z,15.70
2019-02-20T20:49:54.105Z,15.28
2019-02-20T20:52:53.061Z,14.20
2019-02-20T20:55:45.526Z,15.83
2019-02-20T20:58:31.782Z,13.90
2019-02-20T21:01:25.584Z,13.70
2019-02-20T21:04:09.198Z,16.57
2019-02-20T21:06:55.878Z,13.62
2019-02-20T21:09:33.461Z,17.95
2019-02-20T21:12:10.774Z,13.30
2019-02-20T21:14:45.254Z,18.57
2019-02-20T21:17:28.799Z,16.57
2019-02-20T21:20:22.911Z,16.50
2019-02-20T21:23:15.274Z,16.45
2019-02-20T21:26:01.437Z,13.78
2019-02-20T21:28:51.056Z,14.65
2019-02-20T21:31:45.615Z,13.88
2019-02-20T21:34:22.892Z,14.15
2019-02-20T21:37:09.359Z,18.20
2019-02-20T21:39:46.953Z,14.55
2019-02-20T21:42:39.486Z,12.53
2019-02-20T21:45:17.295Z,14.45
2019-02-20T21:47:48.840Z,14.15
2019-02-20T21:50:37.638Z,11.70
2019-02-20T21:53:24.240Z,17.52
2019-02-20T21:56:10.490Z,13.30
2019-02-20T21:58:45.273Z,12.28
2019-02-20T22:01:46.927Z,10.70
2019-02-20T22:04:30.174Z,16.30
2019-02-20T22:07:22.127Z,14.83
2019-02-20T22:10:19.600Z,12.78
2019-02-20T22:12:54.207Z,11.38
2019-02-20T22:15:31.605Z,14.50
2019-02-20T22:18:03.082Z,13.95
2019-02-20T22:20:46.502Z,15.78
2019-02-20T22:23:40.335Z,15.28
2019-02-20T22:26:14.688Z,15.98
2019-02-20T22:28:49.131Z,16.95
2019-02-20T22:31:23.339Z,20.97
2019-02-20T22:33:57.906Z,19.80
2019-02-20T22:36:29.417Z,19.82
2019-02-20T22:39:13.020Z,16.73
2019-02-20T22:42:01.325Z,18.02
2019-02-20T22:44:41.514Z,15.93
2019-02-20T22:47:18.626Z,16.95
2019-02-20T22:50:01.910Z,18.50
2019-02-20T22:52:36.337Z,19.55
2019-02-20T22:55:22.408Z,22.40
2019-02-20T22:57:59.609Z,13.95
2019-02-20T23:01:04.401Z,18.35
2019-02-20T23:03:55.698Z,17.25
2019-02-20T23:06:36.497Z,25.35
2019-02-20T23:09:29.010Z,24.47
2019-02-20T23:12:03.477Z,23.85
2019-02-20T23:14:44.117Z,23.95
2019-02-20T23:17:12.547Z,19.82
2019-02-20T23:19:40.978Z,25.45
2019-02-20T23:22:09.642Z,17.37
2019-02-20T23:24:38.055Z,23.73
2019-02-20T23:27:06.530Z,16.75
2019-02-20T23:29:34.998Z,20.65
2019-02-20T23:32:03.381Z,26.80
2019-02-20T23:34:31.885Z,23.47
2019-02-20T23:37:00.432Z,25.08
2019-02-20T23:39:28.847Z,20.15
2019-02-20T23:41:57.260Z,22.82
2019-02-20T23:44:25.906Z,20.97
2019-02-20T23:46:54.357Z,24.67
2019-02-20T23:49:22.831Z,17.60
2019-02-20T23:51:51.522Z,14.55
2019-02-20T23:54:20.181Z,19.55
2019-02-20T23:56:48.598Z,21.55
2019-02-20T23:59:17.070Z,21.97
